Time;durP1;ratioP1;P1;durP2;ratioP2;P2;SDS_P1;SDS_P2;PMS_P1;PMS_P2;Temp;Humidity;BMP_temperature;BMP_pressure;BME280_temperature;BME280_humidity;BME280_pressure;Samples;Min_cycle;Max_cycle;Signal;HPM_P1;HPM_P2
2023/05/26 00:02:55;;;;;;;15.83;6.60;;;12.80;62.80;;;;;;6293246;28;20233;-85
2023/05/26 00:05:58;;;;;;;14.40;6.57;;;12.70;63.00;;;;;;6308403;27;20815;-84
2023/05/26 00:09:02;;;;;;;18.60;7.57;;;12.70;63.20;;;;;;6295033;28;20483;-80
2023/05/26 00:12:07;;;;;;;12.00;6.57;;;12.70;63.20;;;;;;6298354;28;20403;-83
2023/05/26 00:15:11;;;;;;;13.83;6.83;;;12.70;63.30;;;;;;6292754;28;20773;-86
2023/05/26 00:18:14;;;;;;;15.40;6.53;;;12.60;63.30;;;;;;6303137;27;20318;-86
2023/05/26 00:21:19;;;;;;;12.13;5.70;;;12.50;63.50;;;;;;6324994;27;20238;-84
2023/05/26 00:24:22;;;;;;;17.43;7.57;;;12.50;63.50;;;;;;6280619;27;20726;-84
2023/05/26 00:27:27;;;;;;;20.70;8.23;;;12.50;63.80;;;;;;6292305;28;20321;-84
2023/05/26 00:30:30;;;;;;;20.47;8.90;;;12.50;63.90;;;;;;6311125;27;20842;-82
2023/05/26 00:33:35;;;;;;;12.60;7.70;;;12.50;64.10;;;;;;6290561;28;20249;-82
2023/05/26 00:36:39;;;;;;;16.70;8.03;;;12.50;64.20;;;;;;6295697;27;20368;-84
2023/05/26 00:39:42;;;;;;;17.23;8.07;;;12.40;64.40;;;;;;6314257;27;20237;-83
2023/05/26 00:42:47;;;;;;;15.00;7.40;;;12.40;64.30;;;;;;6318092;27;20643;-84
2023/05/26 00:45:50;;;;;;;21.67;7.97;;;12.30;64.40;;;;;;6311552;28;20248;-86
2023/05/26 00:48:54;;;;;;;14.93;7.43;;;12.30;64.70;;;;;;6303734;28;20275;-83
2023/05/26 00:51:57;;;;;;;17.43;8.17;;;12.20;64.50;;;;;;6294747;28;20312;-84
2023/05/26 00:55:01;;;;;;;16.47;7.23;;;12.20;64.70;;;;;;6291520;28;20846;-84
2023/05/26 00:58:06;;;;;;;16.60;7.13;;;12.20;64.80;;;;;;6287125;28;20243;-82
2023/05/26 01:01:10;;;;;;;12.40;6.63;;;12.10;65.10;;;;;;6290608;28;20292;-79
2023/05/26 01:04:14;;;;;;;15.27;7.70;;;12.10;65.10;;;;;;6296933;28;20229;-82
2023/05/26 01:07:18;;;;;;;15.00;7.57;;;12.00;65.20;;;;;;6302605;28;20225;-81
2023/05/26 01:10:22;;;;;;;14.63;7.57;;;12.00;65.30;;;;;;6303370;28;20319;-83
2023/05/26 01:13:31;;;;;;;15.97;7.73;;;12.00;65.30;;;;;;6288025;28;20233;-84
2023/05/26 01:16:40;;;;;;;16.40;8.07;;;11.90;65.50;;;;;;6296153;28;20315;-82
2023/05/26 01:20:07;;;;;;;20.97;8.73;;;11.90;65.40;;;;;;6289677;28;20226;-80
2023/05/26 01:23:33;;;;;;;18.37;8.00;;;11.90;65.50;;;;;;6288839;28;20237;-83
2023/05/26 01:26:58;;;;;;;12.43;7.17;;;11.90;65.50;;;;;;6271674;28;20291;-85
2023/05/26 01:30:08;;;;;;;17.20;7.53;;;11.90;65.40;;;;;;6297684;28;20236;-83
2023/05/26 01:33:11;;;;;;;14.17;6.57;;;11.90;65.40;;;;;;6295630;28;20233;-86
2023/05/26 01:36:15;;;;;;;17.77;7.87;;;11.80;65.40;;;;;;6287510;27;20225;-83
2023/05/26 01:39:18;;;;;;;22.77;8.60;;;11.80;65.30;;;;;;6289844;28;20914;-82
2023/05/26 01:42:24;;;;;;;14.60;7.40;;;11.70;65.40;;;;;;6296403;28;20802;-83
2023/05/26 01:45:40;;;;;;;11.17;6.33;;;11.70;65.30;;;;;;6295693;28;20693;-84
2023/05/26 01:48:47;;;;;;;10.80;6.47;;;11.70;65.20;;;;;;6288651;28;20237;-84
2023/05/26 01:51:56;;;;;;;13.63;6.83;;;11.70;65.20;;;;;;6294993;27;20237;-83
2023/05/26 01:55:04;;;;;;;10.70;6.90;;;11.60;65.20;;;;;;6294102;27;20827;-84
2023/05/26 01:58:09;;;;;;;9.13;6.60;;;11.50;65.30;;;;;;6288573;28;20845;-84
2023/05/26 02:01:15;;;;;;;14.70;6.10;;;11.50;65.50;;;;;;6286946;28;20328;-83
2023/05/26 02:04:19;;;;;;;7.90;5.80;;;11.40;65.50;;;;;;6300200;27;20325;-83
2023/05/26 02:07:22;;;;;;;11.60;6.50;;;11.40;65.60;;;;;;6289469;28;20260;-85
2023/05/26 02:10:25;;;;;;;9.03;5.90;;;11.30;65.80;;;;;;6284065;28;20287;-85
2023/05/26 02:13:28;;;;;;;7.43;5.53;;;11.30;65.90;;;;;;6288518;28;20266;-81
2023/05/26 02:16:33;;;;;;;11.57;6.13;;;11.30;65.90;;;;;;6301299;27;20236;-84
2023/05/26 02:19:36;;;;;;;13.83;6.50;;;11.20;66.00;;;;;;6302213;27;20236;-82
2023/05/26 02:22:39;;;;;;;9.17;6.27;;;11.10;66.10;;;;;;6294424;27;20294;-82
2023/05/26 02:25:43;;;;;;;12.77;7.30;;;11.10;66.20;;;;;;6294808;27;20719;-83
2023/05/26 02:28:46;;;;;;;12.87;7.43;;;11.10;66.30;;;;;;6310879;27;20724;-85
2023/05/26 02:31:51;;;;;;;13.63;7.30;;;11.10;66.40;;;;;;6292364;28;20225;-85
2023/05/26 02:34:54;;;;;;;8.70;6.77;;;11.10;66.60;;;;;;6277702;27;20581;-81
2023/05/26 02:37:57;;;;;;;17.13;8.60;;;11.10;66.60;;;;;;6288145;28;20818;-84
2023/05/26 02:41:00;;;;;;;20.97;8.70;;;11.10;67.00;;;;;;6293052;27;20240;-84
2023/05/26 02:44:04;;;;;;;19.63;7.93;;;11.00;67.10;;;;;;6285984;28;20245;-81
2023/05/26 02:47:08;;;;;;;18.57;7.87;;;11.00;67.60;;;;;;6319876;27;20320;-83
2023/05/26 02:50:13;;;;;;;18.97;8.10;;;11.00;67.30;;;;;;6296948;28;20227;-84
2023/05/26 02:53:18;;;;;;;17.50;8.37;;;11.10;67.20;;;;;;6309205;27;20260;-82
2023/05/26 02:56:22;;;;;;;17.57;8.23;;;11.10;66.90;;;;;;6288136;28;20222;-82
2023/05/26 02:59:25;;;;;;;23.30;8.30;;;11.10;66.70;;;;;;6291290;28;20236;-82
2023/05/26 03:02:29;;;;;;;19.57;8.87;;;11.10;66.90;;;;;;6295182;28;20854;-82
2023/05/26 03:05:33;;;;;;;22.57;9.23;;;11.10;67.20;;;;;;6286990;28;20233;-84
2023/05/26 03:08:37;;;;;;;20.00;8.63;;;11.10;67.40;;;;;;6284081;28;20248;-84
2023/05/26 03:11:41;;;;;;;18.30;8.33;;;11.10;67.30;;;;;;6285319;28;20288;-86
2023/05/26 03:14:44;;;;;;;15.47;7.80;;;11.00;67.40;;;;;;6288891;28;20240;-84
2023/05/26 03:17:50;;;;;;;16.53;8.03;;;11.00;67.30;;;;;;6288839;28;20241;-84
2023/05/26 03:20:54;;;;;;;14.93;8.00;;;11.00;67.40;;;;;;6308177;27;20724;-83
2023/05/26 03:23:57;;;;;;;18.27;8.83;;;11.00;67.40;;;;;;6320569;28;20657;-83
2023/05/26 03:27:01;;;;;;;21.90;8.53;;;11.00;67.30;;;;;;6298421;28;20231;-82
2023/05/26 03:30:05;;;;;;;15.50;8.30;;;11.00;67.40;;;;;;6294372;28;20312;-82
2023/05/26 03:33:09;;;;;;;17.97;7.97;;;11.00;67.30;;;;;;6280112;28;20790;-81
2023/05/26 03:36:16;;;;;;;20.90;9.70;;;11.00;67.20;;;;;;6282972;28;20234;-82
2023/05/26 03:39:21;;;;;;;24.53;9.23;;;11.00;67.30;;;;;;6280239;28;20230;-79
2023/05/26 03:42:25;;;;;;;23.60;8.43;;;11.00;67.20;;;;;;6287923;28;20673;-80
2023/05/26 03:45:28;;;;;;;15.87;8.57;;;11.00;67.50;;;;;;6279334;28;20244;-79
2023/05/26 03:48:32;;;;;;;17.33;7.80;;;11.00;67.40;;;;;;6287355;28;20355;-81
2023/05/26 03:51:36;;;;;;;20.20;7.93;;;11.00;67.40;;;;;;6295501;28;20284;-80
2023/05/26 03:54:39;;;;;;;19.27;7.97;;;11.00;67.50;;;;;;6290930;28;20235;-80
2023/05/26 03:57:43;;;;;;;19.53;8.53;;;10.90;67.70;;;;;;6287733;28;20309;-79
2023/05/26 04:00:47;;;;;;;18.60;8.20;;;11.00;67.70;;;;;;6282417;28;20328;-81
2023/05/26 04:03:51;;;;;;;19.77;8.33;;;11.00;67.80;;;;;;6282556;28;20267;-78
2023/05/26 04:06:55;;;;;;;17.33;7.97;;;10.90;68.00;;;;;;6285120;28;20233;-78
2023/05/26 04:09:58;;;;;;;18.10;8.23;;;11.00;67.90;;;;;;6291886;28;20225;-79
2023/05/26 04:13:01;;;;;;;20.23;9.10;;;11.00;67.80;;;;;;6286266;28;20311;-78
2023/05/26 04:16:05;;;;;;;21.33;8.90;;;11.00;67.70;;;;;;6294226;27;20745;-77
2023/05/26 04:19:09;;;;;;;17.53;7.80;;;11.00;67.60;;;;;;6285149;28;20312;-78
2023/05/26 04:22:13;;;;;;;14.37;7.43;;;11.00;67.40;;;;;;6287007;28;20355;-80
2023/05/26 04:25:16;;;;;;;19.47;8.10;;;11.00;67.20;;;;;;6284283;28;20237;-81
2023/05/26 04:28:19;;;;;;;13.60;7.63;;;11.00;67.20;;;;;;6279164;28;20302;-81
2023/05/26 04:31:23;;;;;;;16.97;8.53;;;11.00;67.50;;;;;;6278729;28;20276;-80
2023/05/26 04:34:28;;;;;;;14.83;7.57;;;11.10;67.30;;;;;;6275516;28;20732;-79
2023/05/26 04:37:33;;;;;;;20.37;7.83;;;11.10;67.20;;;;;;6284047;28;20247;-80
2023/05/26 04:40:36;;;;;;;20.60;8.23;;;11.10;67.20;;;;;;6288160;28;20724;-79
2023/05/26 04:43:40;;;;;;;20.60;8.10;;;11.30;67.10;;;;;;6306631;27;20746;-81
2023/05/26 04:46:45;;;;;;;15.47;8.43;;;11.30;66.80;;;;;;6283962;28;25754;-79
2023/05/26 04:49:51;;;;;;;18.47;7.83;;;11.40;66.60;;;;;;6286743;27;20229;-79
2023/05/26 04:52:54;;;;;;;17.07;7.50;;;11.50;66.40;;;;;;6285233;28;20244;-80
2023/05/26 04:55:59;;;;;;;18.93;7.70;;;11.60;66.00;;;;;;6298005;28;20237;-82
2023/05/26 04:59:07;;;;;;;15.43;7.77;;;11.70;65.70;;;;;;6266465;28;20284;-83
2023/05/26 05:02:10;;;;;;;12.63;6.80;;;11.90;65.50;;;;;;6285564;28;20241;-81
2023/05/26 05:05:15;;;;;;;15.40;7.17;;;12.20;64.80;;;;;;6278150;28;20229;-81
2023/05/26 05:08:18;;;;;;;21.10;8.23;;;12.40;64.50;;;;;;6292698;28;20322;-80
2023/05/26 05:11:21;;;;;;;14.20;7.23;;;12.50;64.00;;;;;;6284019;28;20299;-79
2023/05/26 05:14:25;;;;;;;16.10;7.27;;;12.80;63.50;;;;;;6291822;28;20316;-79
2023/05/26 05:17:28;;;;;;;19.23;7.67;;;12.90;62.90;;;;;;6288012;28;20245;-79
2023/05/26 05:20:33;;;;;;;15.50;7.20;;;13.10;63.00;;;;;;6288633;28;20382;-77
2023/05/26 05:23:36;;;;;;;18.20;8.10;;;13.30;62.20;;;;;;6291608;28;20245;-78
2023/05/26 05:26:39;;;;;;;17.27;7.20;;;13.30;62.20;;;;;;6294267;28;20259;-78
2023/05/26 05:29:42;;;;;;;18.17;7.50;;;13.50;61.90;;;;;;6290261;28;20847;-78
2023/05/26 05:32:45;;;;;;;20.63;7.67;;;13.60;61.80;;;;;;6290589;28;20248;-78
2023/05/26 05:35:49;;;;;;;19.97;7.37;;;13.90;61.30;;;;;;6279783;28;20253;-78
2023/05/26 05:38:56;;;;;;;15.20;7.03;;;14.20;60.40;;;;;;6274104;28;20314;-79
2023/05/26 05:41:59;;;;;;;18.13;6.90;;;14.30;60.40;;;;;;6295309;28;20244;-79
2023/05/26 05:45:02;;;;;;;14.83;6.87;;;14.50;60.00;;;;;;6297512;27;20314;-79
2023/05/26 05:48:05;;;;;;;14.50;7.07;;;14.60;59.70;;;;;;6297930;28;20248;-80
2023/05/26 05:51:10;;;;;;;17.63;6.43;;;14.90;59.30;;;;;;6294070;27;20240;-80
2023/05/26 05:54:15;;;;;;;17.17;6.97;;;15.00;58.70;;;;;;6299603;28;20239;-81
2023/05/26 05:57:18;;;;;;;14.03;6.67;;;15.10;58.80;;;;;;6301452;27;20903;-79
2023/05/26 06:00:21;;;;;;;19.17;7.00;;;15.30;58.70;;;;;;6281861;28;20248;-80
2023/05/26 06:03:25;;;;;;;11.97;6.07;;;15.60;58.10;;;;;;6288768;28;20316;-80
2023/05/26 06:06:31;;;;;;;23.30;7.37;;;16.00;57.50;;;;;;6284207;28;20279;-78
2023/05/26 06:09:34;;;;;;;16.87;7.00;;;16.00;57.30;;;;;;6280337;28;20237;-79
2023/05/26 06:12:37;;;;;;;16.67;6.77;;;16.20;57.00;;;;;;6284584;27;20248;-79
2023/05/26 06:15:40;;;;;;;17.63;7.23;;;16.50;56.50;;;;;;6286584;28;20313;-79
2023/05/26 06:18:44;;;;;;;18.10;7.33;;;16.80;56.30;;;;;;6286322;28;20240;-78
2023/05/26 06:21:50;;;;;;;14.80;6.37;;;17.00;55.30;;;;;;6286373;28;20666;-79
2023/05/26 06:24:54;;;;;;;16.80;6.50;;;17.20;55.70;;;;;;6282485;27;20238;-78
2023/05/26 06:27:57;;;;;;;18.27;6.60;;;17.30;54.70;;;;;;6286877;28;20241;-80
2023/05/26 06:31:00;;;;;;;19.23;7.30;;;17.30;55.10;;;;;;6290154;27;20233;-79
2023/05/26 06:34:03;;;;;;;18.70;6.93;;;17.50;55.00;;;;;;6274895;28;20236;-77
2023/05/26 06:37:08;;;;;;;24.00;7.43;;;17.80;54.10;;;;;;6274459;28;20229;-81
2023/05/26 06:40:12;;;;;;;17.77;7.03;;;17.40;54.30;;;;;;6279372;28;20240;-80
2023/05/26 06:43:15;;;;;;;12.67;6.20;;;17.40;54.90;;;;;;6275656;28;20960;-80
2023/05/26 06:46:18;;;;;;;16.00;6.80;;;17.80;54.40;;;;;;6282113;27;20350;-79
2023/05/26 06:49:22;;;;;;;16.83;6.43;;;17.80;53.90;;;;;;6280996;28;20893;-81
2023/05/26 06:52:26;;;;;;;15.27;6.00;;;18.00;53.20;;;;;;6295763;28;20290;-79
2023/05/26 06:55:30;;;;;;;19.37;6.80;;;18.00;53.30;;;;;;6290536;28;20696;-82
2023/05/26 06:58:33;;;;;;;16.93;6.77;;;18.20;53.50;;;;;;6280992;28;20229;-83
2023/05/26 07:01:37;;;;;;;15.67;8.10;;;18.30;52.80;;;;;;6279119;27;20328;-81
2023/05/26 07:04:41;;;;;;;13.73;6.77;;;18.00;53.60;;;;;;6293107;27;20243;-80
2023/05/26 07:07:46;;;;;;;15.20;6.27;;;18.00;53.30;;;;;;6284258;28;20285;-79
2023/05/26 07:10:49;;;;;;;14.50;6.07;;;18.10;53.80;;;;;;6278378;28;20244;-78
2023/05/26 07:13:52;;;;;;;16.90;6.43;;;18.40;53.10;;;;;;6290083;28;20318;-80
2023/05/26 07:16:56;;;;;;;14.40;6.20;;;18.60;52.20;;;;;;6286782;28;20240;-78
2023/05/26 07:20:00;;;;;;;14.57;6.17;;;18.60;52.10;;;;;;6310630;27;20228;-78
2023/05/26 07:23:05;;;;;;;13.83;6.07;;;18.20;51.60;;;;;;6285373;28;20593;-81
2023/05/26 07:26:08;;;;;;;15.10;7.03;;;18.20;51.70;;;;;;6284017;28;20233;-79
2023/05/26 07:29:11;;;;;;;14.23;5.57;;;18.10;52.30;;;;;;6310056;27;20236;-78
2023/05/26 07:32:14;;;;;;;17.50;5.87;;;17.90;51.50;;;;;;6316012;28;20451;-80
2023/05/26 07:35:20;;;;;;;15.17;6.43;;;17.80;52.80;;;;;;6280954;28;20238;-80
2023/05/26 07:38:25;;;;;;;19.40;7.40;;;17.80;52.00;;;;;;6285795;28;20295;-81
2023/05/26 07:41:28;;;;;;;14.00;5.97;;;17.80;52.10;;;;;;6286267;28;20290;-81
2023/05/26 07:44:32;;;;;;;11.00;5.67;;;17.50;51.90;;;;;;6286341;28;20716;-78
2023/05/26 07:47:35;;;;;;;18.50;6.77;;;17.40;52.20;;;;;;6299751;28;20259;-80
2023/05/26 07:50:39;;;;;;;16.97;6.60;;;17.50;52.50;;;;;;6295302;28;20731;-80
2023/05/26 07:53:43;;;;;;;13.83;5.57;;;17.20;51.80;;;;;;6290780;28;20458;-79
2023/05/26 07:56:47;;;;;;;19.60;6.37;;;17.10;52.60;;;;;;6302853;28;20229;-80
2023/05/26 07:59:50;;;;;;;14.53;5.93;;;17.00;53.60;;;;;;6299445;27;20237;-80
2023/05/26 08:02:53;;;;;;;12.03;5.70;;;16.90;53.30;;;;;;6288521;27;20328;-80
2023/05/26 08:05:57;;;;;;;19.10;6.33;;;17.00;52.90;;;;;;6294207;28;20828;-80
2023/05/26 08:09:10;;;;;;;16.80;6.23;;;17.00;53.50;;;;;;6281947;28;20233;-80
2023/05/26 08:12:14;;;;;;;15.27;6.10;;;17.20;53.30;;;;;;6299248;28;20834;-81
2023/05/26 08:15:18;;;;;;;19.47;6.63;;;17.10;52.80;;;;;;6309070;28;20400;-78
2023/05/26 08:18:22;;;;;;;20.93;6.67;;;17.20;52.80;;;;;;6313267;28;20230;-78
2023/05/26 08:21:29;;;;;;;19.13;6.93;;;17.20;53.00;;;;;;6318493;28;20298;-79
2023/05/26 08:24:34;;;;;;;18.53;6.20;;;17.00;52.30;;;;;;6314598;27;20314;-81
2023/05/26 08:27:37;;;;;;;11.03;5.60;;;17.00;51.90;;;;;;6295956;28;20225;-78
2023/05/26 08:30:41;;;;;;;14.87;6.30;;;17.20;51.90;;;;;;6288521;28;20238;-78
2023/05/26 08:33:45;;;;;;;17.80;6.33;;;17.20;51.60;;;;;;6278812;28;20703;-78
2023/05/26 08:36:48;;;;;;;23.80;6.90;;;17.30;51.70;;;;;;6288941;27;20696;-81
2023/05/26 08:39:52;;;;;;;18.27;6.43;;;17.20;52.50;;;;;;6291401;28;20241;-79
2023/05/26 08:42:58;;;;;;;12.23;5.70;;;17.40;52.20;;;;;;6304128;27;20234;-79
2023/05/26 08:46:03;;;;;;;17.90;6.13;;;17.50;52.60;;;;;;6288418;28;20779;-80
2023/05/26 08:49:09;;;;;;;15.60;5.83;;;17.60;52.00;;;;;;6291505;28;20893;-81
2023/05/26 08:52:16;;;;;;;16.33;5.50;;;17.80;52.00;;;;;;6289123;28;20302;-82
2023/05/26 08:55:21;;;;;;;23.60;7.03;;;18.00;51.00;;;;;;6298679;28;20747;-79
2023/05/26 08:58:25;;;;;;;10.67;5.30;;;18.10;50.80;;;;;;6303761;27;20258;-78
2023/05/26 09:01:28;;;;;;;15.80;6.00;;;18.00;50.90;;;;;;6301682;28;20309;-78
2023/05/26 09:04:32;;;;;;;18.27;5.53;;;18.20;50.70;;;;;;6296463;28;20740;-80
2023/05/26 09:07:35;;;;;;;12.77;5.37;;;18.30;50.70;;;;;;6291519;28;20236;-81
2023/05/26 09:10:40;;;;;;;17.77;5.70;;;18.50;50.00;;;;;;6296687;28;20689;-80
2023/05/26 09:13:43;;;;;;;14.17;5.67;;;18.40;49.60;;;;;;6301548;27;20232;-79
2023/05/26 09:16:46;;;;;;;18.77;6.10;;;18.50;49.90;;;;;;6295037;28;20234;-82
2023/05/26 09:19:50;;;;;;;17.93;6.07;;;18.50;49.80;;;;;;6288616;28;20432;-81
2023/05/26 09:22:57;;;;;;;17.03;5.80;;;18.70;49.20;;;;;;6310643;28;20297;-79
2023/05/26 09:26:07;;;;;;;10.07;5.40;;;18.60;49.10;;;;;;6289731;28;20847;-81
2023/05/26 09:29:10;;;;;;;15.57;5.57;;;18.70;48.60;;;;;;6323658;27;20225;-80
2023/05/26 09:32:16;;;;;;;13.87;5.83;;;18.60;48.20;;;;;;6288194;28;20856;-80
2023/05/26 09:35:19;;;;;;;13.87;5.43;;;18.60;48.00;;;;;;6296329;28;20265;-81
2023/05/26 09:38:25;;;;;;;13.60;4.90;;;18.70;48.70;;;;;;6302022;28;20621;-79
2023/05/26 09:41:37;;;;;;;13.57;5.80;;;18.70;47.90;;;;;;6304617;28;20301;-80
2023/05/26 09:48:11;;;;;;;13.23;5.43;;;18.80;48.00;;;;;;6299233;28;20757;-80
2023/05/26 09:51:19;;;;;;;10.53;5.03;;;18.80;48.10;;;;;;6298682;28;20808;-81
2023/05/26 09:54:26;;;;;;;13.37;4.90;;;18.90;47.90;;;;;;6299434;28;20312;-82
2023/05/26 09:57:33;;;;;;;12.53;4.90;;;19.00;46.80;;;;;;6297241;28;20237;-80
2023/05/26 10:00:39;;;;;;;11.87;5.23;;;19.20;46.90;;;;;;6289320;28;20857;-80
2023/05/26 10:03:42;;;;;;;15.57;5.53;;;19.20;46.70;;;;;;6290603;28;20265;-79
2023/05/26 10:06:48;;;;;;;14.10;5.13;;;19.20;46.50;;;;;;6281109;28;20324;-80
2023/05/26 10:09:56;;;;;;;10.90;4.40;;;19.10;46.50;;;;;;6284022;28;20263;-81
2023/05/26 10:13:03;;;;;;;9.73;4.80;;;19.10;46.20;;;;;;6296422;28;20249;-81
2023/05/26 10:16:07;;;;;;;8.90;4.70;;;19.30;45.80;;;;;;6297219;28;20240;-82
2023/05/26 10:19:10;;;;;;;10.60;5.13;;;19.30;45.50;;;;;;6296045;28;20228;-81
2023/05/26 10:22:21;;;;;;;14.23;5.80;;;19.40;45.80;;;;;;6298274;27;20320;-81
2023/05/26 10:25:28;;;;;;;12.67;5.30;;;19.30;46.00;;;;;;6280338;28;20242;-82
2023/05/26 10:28:38;;;;;;;10.97;5.03;;;19.20;45.50;;;;;;6303258;28;20241;-82
2023/05/26 10:31:42;;;;;;;15.87;5.00;;;19.10;45.70;;;;;;6285946;28;20237;-80
2023/05/26 10:34:46;;;;;;;11.20;5.00;;;19.20;46.40;;;;;;6285163;28;20241;-83
2023/05/26 10:37:52;;;;;;;7.73;4.57;;;19.30;46.30;;;;;;6290902;28;20238;-81
2023/05/26 10:40:56;;;;;;;10.70;5.00;;;19.50;45.70;;;;;;6290528;28;20244;-83
2023/05/26 10:44:01;;;;;;;7.73;4.87;;;19.50;45.00;;;;;;6292608;27;20240;-83
2023/05/26 10:47:05;;;;;;;9.13;4.97;;;19.50;45.40;;;;;;6303463;28;20233;-79
2023/05/26 10:50:10;;;;;;;11.47;5.10;;;19.70;45.30;;;;;;6298062;27;20230;-81
2023/05/26 10:53:21;;;;;;;14.73;5.37;;;19.70;45.00;;;;;;6279769;28;20311;-82
2023/05/26 10:56:34;;;;;;;12.47;5.30;;;19.70;44.90;;;;;;6287058;28;20233;-81
2023/05/26 10:59:40;;;;;;;9.03;5.17;;;19.50;45.50;;;;;;6288319;28;20912;-82
2023/05/26 11:02:44;;;;;;;10.00;5.07;;;19.50;46.10;;;;;;6279195;28;20234;-81
2023/05/26 11:05:55;;;;;;;9.07;4.80;;;19.50;45.50;;;;;;6297083;27;20232;-80
2023/05/26 11:09:07;;;;;;;17.13;5.60;;;19.70;45.90;;;;;;6290461;28;20274;-82
2023/05/26 11:12:10;;;;;;;10.93;5.00;;;19.70;45.00;;;;;;6312321;28;20231;-81
2023/05/26 11:15:30;;;;;;;10.40;4.70;;;19.50;45.00;;;;;;6315969;28;20227;-82
2023/05/26 11:18:34;;;;;;;9.17;4.43;;;19.50;45.20;;;;;;6310665;28;20229;-82
2023/05/26 11:21:38;;;;;;;8.87;4.40;;;19.40;46.40;;;;;;6310397;28;20262;-81
2023/05/26 11:24:43;;;;;;;11.63;5.40;;;19.50;45.80;;;;;;6297705;28;20726;-82
2023/05/26 11:27:46;;;;;;;7.07;4.30;;;19.70;45.30;;;;;;6319660;28;20244;-80
2023/05/26 11:30:51;;;;;;;9.43;4.43;;;19.90;44.50;;;;;;6305765;28;20233;-83
2023/05/26 11:33:55;;;;;;;8.70;4.57;;;20.10;43.70;;;;;;6311896;28;20237;-82
2023/05/26 11:36:59;;;;;;;10.67;4.97;;;20.10;43.60;;;;;;6294803;28;20225;-81
2023/05/26 11:40:04;;;;;;;9.00;5.07;;;20.30;44.60;;;;;;6312251;28;20224;-82
2023/05/26 11:43:08;;;;;;;13.63;5.47;;;20.50;43.90;;;;;;6313115;28;20236;-82
2023/05/26 11:46:15;;;;;;;10.67;4.50;;;20.50;44.30;;;;;;6306882;28;20367;-81
2023/05/26 11:49:19;;;;;;;5.67;3.80;;;20.60;41.70;;;;;;6319151;28;20300;-81
2023/05/26 11:52:23;;;;;;;9.50;4.80;;;20.60;39.60;;;;;;6306651;28;21271;-79
2023/05/26 11:55:26;;;;;;;8.53;4.83;;;20.50;39.10;;;;;;6310024;28;20243;-80
2023/05/26 11:58:29;;;;;;;9.10;4.37;;;20.30;40.80;;;;;;6317333;28;20232;-79
2023/05/26 12:01:34;;;;;;;7.10;4.27;;;20.30;40.50;;;;;;6323796;27;20236;-80
2023/05/26 12:04:37;;;;;;;8.07;3.97;;;20.30;38.80;;;;;;6309068;28;20321;-78
2023/05/26 12:07:41;;;;;;;5.03;3.77;;;20.30;38.30;;;;;;6308179;27;20240;-80
2023/05/26 12:10:44;;;;;;;9.30;4.17;;;20.50;38.70;;;;;;6315333;27;20281;-80
2023/05/26 12:13:50;;;;;;;6.23;3.87;;;20.70;38.90;;;;;;6296089;28;20236;-82
2023/05/26 12:16:56;;;;;;;9.47;4.33;;;20.80;38.80;;;;;;6322445;28;20236;-80
2023/05/26 12:20:01;;;;;;;7.03;3.07;;;20.80;38.80;;;;;;6322608;28;20731;-81
2023/05/26 12:23:05;;;;;;;6.10;4.10;;;20.90;39.60;;;;;;6317125;28;20314;-80
2023/05/26 12:26:15;;;;;;;7.00;4.33;;;20.80;39.00;;;;;;6328183;27;20260;-82
2023/05/26 12:29:19;;;;;;;7.57;4.00;;;20.80;39.10;;;;;;6317149;28;20665;-81
2023/05/26 12:32:23;;;;;;;8.53;3.83;;;20.70;39.30;;;;;;6310303;28;20236;-82
2023/05/26 12:35:28;;;;;;;5.73;3.70;;;20.80;37.90;;;;;;6323675;27;20235;-80
2023/05/26 12:38:41;;;;;;;10.13;3.80;;;20.70;37.60;;;;;;6345801;27;20769;-82
2023/05/26 12:41:45;;;;;;;6.70;4.67;;;20.80;38.20;;;;;;6319227;28;20236;-80
2023/05/26 12:44:48;;;;;;;10.50;4.27;;;20.80;38.60;;;;;;6319203;28;20243;-81
2023/05/26 12:47:53;;;;;;;5.17;3.93;;;20.80;38.20;;;;;;6319013;28;20245;-81
2023/05/26 12:50:56;;;;;;;6.53;3.80;;;20.70;38.00;;;;;;6325995;28;20268;-81
2023/05/26 12:54:00;;;;;;;6.47;3.50;;;20.60;37.40;;;;;;6320319;27;20229;-81
2023/05/26 12:57:04;;;;;;;9.33;4.17;;;20.70;37.40;;;;;;6319970;27;20228;-83
2023/05/26 13:00:09;;;;;;;7.20;3.83;;;20.90;38.00;;;;;;6317123;28;20226;-83
2023/05/26 13:03:14;;;;;;;10.10;4.03;;;20.80;38.50;;;;;;6315255;28;20249;-81
2023/05/26 13:06:22;;;;;;;9.80;4.50;;;20.80;38.30;;;;;;6312389;27;20747;-79
2023/05/26 13:09:28;;;;;;;5.13;4.07;;;20.80;38.30;;;;;;6316628;28;20297;-82
2023/05/26 13:12:32;;;;;;;5.97;3.77;;;20.70;37.40;;;;;;6318310;28;20842;-80
2023/05/26 13:15:37;;;;;;;5.67;3.23;;;20.60;36.90;;;;;;6312022;28;20224;-83
2023/05/26 13:18:43;;;;;;;8.07;4.17;;;20.70;36.80;;;;;;6315805;28;20232;-80
2023/05/26 13:21:47;;;;;;;5.73;3.93;;;20.80;37.50;;;;;;6318204;27;20308;-83
2023/05/26 13:24:50;;;;;;;11.40;4.27;;;20.90;37.90;;;;;;6321130;27;20233;-81
2023/05/26 13:27:53;;;;;;;6.83;4.10;;;20.90;38.10;;;;;;6315729;28;20236;-82
2023/05/26 13:30:56;;;;;;;10.87;4.13;;;20.90;38.80;;;;;;6321341;28;20232;-80
2023/05/26 13:34:01;;;;;;;5.83;4.00;;;20.90;38.80;;;;;;6316487;28;20625;-82
2023/05/26 13:37:05;;;;;;;8.20;4.33;;;21.00;39.10;;;;;;6328349;27;20248;-82
2023/05/26 13:40:10;;;;;;;6.97;3.80;;;21.10;38.80;;;;;;6316865;27;20233;-83
2023/05/26 13:43:13;;;;;;;6.87;4.00;;;21.10;38.60;;;;;;6313564;27;20328;-82
2023/05/26 13:46:16;;;;;;;7.00;4.40;;;21.10;39.00;;;;;;6313348;28;20244;-82
2023/05/26 13:49:24;;;;;;;11.60;4.43;;;21.30;38.90;;;;;;6322163;28;20232;-81
2023/05/26 13:52:29;;;;;;;9.37;4.23;;;21.40;38.90;;;;;;6313036;27;20339;-81
2023/05/26 13:55:33;;;;;;;6.83;3.63;;;21.20;39.00;;;;;;6317664;28;20315;-80
2023/05/26 13:58:36;;;;;;;9.07;3.60;;;21.20;39.00;;;;;;6316449;27;20256;-84
2023/05/26 14:01:40;;;;;;;6.70;4.30;;;21.10;39.10;;;;;;6324283;27;20712;-82
2023/05/26 14:04:44;;;;;;;8.10;3.97;;;21.10;38.70;;;;;;6335908;28;20773;-83
2023/05/26 14:07:47;;;;;;;5.33;3.37;;;21.10;38.00;;;;;;6325997;28;20247;-82
2023/05/26 14:10:50;;;;;;;6.47;3.90;;;21.20;38.70;;;;;;6357608;27;20232;-79
2023/05/26 14:13:55;;;;;;;7.13;3.93;;;21.10;38.80;;;;;;6345423;27;20217;-81
2023/05/26 14:16:58;;;;;;;10.27;4.47;;;21.30;38.80;;;;;;6337209;27;20220;-79
2023/05/26 14:20:02;;;;;;;9.27;4.30;;;21.30;38.90;;;;;;6349711;28;20275;-79
2023/05/26 14:23:25;;;;;;;5.97;3.83;;;21.20;38.70;;;;;;6350727;28;20317;-79
2023/05/26 14:26:28;;;;;;;7.23;4.27;;;21.10;38.60;;;;;;6350334;28;20221;-79
2023/05/26 14:29:31;;;;;;;7.30;4.53;;;21.10;39.00;;;;;;6358591;27;20233;-80
2023/05/26 14:32:34;;;;;;;10.97;4.67;;;21.20;38.30;;;;;;6343573;28;20224;-80
2023/05/26 14:35:39;;;;;;;5.43;4.43;;;21.30;37.60;;;;;;6351299;28;20251;-78
2023/05/26 14:38:45;;;;;;;9.00;4.00;;;21.30;37.50;;;;;;6349641;28;20229;-80
2023/05/26 14:41:48;;;;;;;9.33;4.80;;;21.20;38.10;;;;;;6340361;28;20221;-80
2023/05/26 14:44:51;;;;;;;10.20;4.47;;;21.40;38.70;;;;;;6339822;28;20216;-81
2023/05/26 14:47:56;;;;;;;6.90;4.40;;;21.40;39.00;;;;;;6345100;28;20448;-83
2023/05/26 14:51:01;;;;;;;8.27;4.47;;;21.40;38.20;;;;;;6353123;28;20240;-79
2023/05/26 14:54:05;;;;;;;10.30;4.77;;;21.20;38.00;;;;;;6346869;28;20226;-79
2023/05/26 14:57:08;;;;;;;10.33;5.00;;;21.10;38.60;;;;;;6338496;28;20233;-80
2023/05/26 15:00:13;;;;;;;6.20;4.03;;;21.10;39.10;;;;;;6315130;27;20240;-80
2023/05/26 15:03:16;;;;;;;6.93;4.20;;;21.10;38.50;;;;;;6324273;27;20320;-78
2023/05/26 15:06:21;;;;;;;7.10;5.10;;;21.00;38.90;;;;;;6321329;28;20296;-79
2023/05/26 15:09:24;;;;;;;6.43;4.20;;;21.10;39.10;;;;;;6324577;28;20593;-78
2023/05/26 15:12:27;;;;;;;9.67;4.67;;;21.20;38.90;;;;;;6326784;28;20293;-78
2023/05/26 15:15:31;;;;;;;9.10;4.63;;;21.50;39.50;;;;;;6321906;28;20240;-78
2023/05/26 15:18:34;;;;;;;6.97;4.10;;;21.50;39.40;;;;;;6313766;28;20297;-78
2023/05/26 15:21:38;;;;;;;8.00;4.83;;;21.30;39.60;;;;;;6318554;28;20327;-77
2023/05/26 15:24:42;;;;;;;8.83;4.60;;;21.40;39.30;;;;;;6311881;28;20244;-76
2023/05/26 15:27:45;;;;;;;9.87;4.77;;;21.40;39.50;;;;;;6316126;28;20391;-76
2023/05/26 15:30:48;;;;;;;5.07;4.13;;;21.00;40.10;;;;;;6306170;28;20240;-78
2023/05/26 15:33:51;;;;;;;7.60;4.47;;;21.00;40.60;;;;;;6307973;28;20244;-80
2023/05/26 15:36:56;;;;;;;8.40;4.80;;;21.10;40.80;;;;;;6315743;28;20245;-75
2023/05/26 15:39:59;;;;;;;11.67;4.60;;;21.00;40.30;;;;;;6306156;28;20323;-77
2023/05/26 15:43:02;;;;;;;12.73;4.67;;;20.80;40.50;;;;;;6325648;27;20231;-79
2023/05/26 15:46:05;;;;;;;8.87;4.63;;;20.80;40.50;;;;;;6319896;27;20270;-78
2023/05/26 15:49:08;;;;;;;5.87;3.83;;;20.90;40.40;;;;;;6332162;27;20240;-76
2023/05/26 15:52:12;;;;;;;8.00;3.80;;;20.70;40.50;;;;;;6333605;28;20243;-77
2023/05/26 15:55:15;;;;;;;8.33;4.57;;;20.60;40.60;;;;;;6355087;28;20219;-77
2023/05/26 15:58:19;;;;;;;7.13;4.53;;;20.60;40.80;;;;;;6348486;27;20224;-75